createdAt,value
2022-10-03T00:00:18.815Z,101376.63
2022-10-03T00:03:30.961Z,101375.19
2022-10-03T00:06:09.470Z,101376.66
2022-10-03T00:08:59.293Z,101374.69
2022-10-03T00:11:57.592Z,101378.06
2022-10-03T00:14:51.025Z,101377.38
2022-10-03T00:17:27.101Z,101382.22
2022-10-03T00:20:04.932Z,101382.44
2022-10-03T00:22:37.259Z,101385.03
2022-10-03T00:25:21.223Z,101384.31
2022-10-03T00:28:12.580Z,101392.63
2022-10-03T00:31:16.886Z,101396.75
2022-10-03T00:34:03.403Z,101392.88
2022-10-03T00:37:07.345Z,101392.41
2022-10-03T00:40:05.186Z,101399.44
2022-10-03T00:42:57.915Z,101395.00
2022-10-03T00:45:49.880Z,101394.53
2022-10-03T00:48:38.963Z,101395.09
2022-10-03T00:51:24.414Z,101397.94
2022-10-03T00:54:41.574Z,101402.69
2022-10-03T00:57:27.181Z,101399.25
2022-10-03T01:00:18.535Z,101405.03
2022-10-03T01:03:11.881Z,101401.88
2022-10-03T01:06:15.044Z,101400.09
2022-10-03T01:09:08.077Z,101409.69
2022-10-03T01:11:41.156Z,101413.91
2022-10-03T01:14:27.076Z,101418.19
2022-10-03T01:17:09.422Z,101420.00
2022-10-03T01:20:08.301Z,101416.31
2022-10-03T01:22:50.368Z,101422.88
2022-10-03T01:25:19.451Z,101426.97
2022-10-03T01:28:37.694Z,101430.25
2022-10-03T01:31:10.493Z,101432.66
2022-10-03T01:33:47.754Z,101440.50
2022-10-03T01:37:02.895Z,101435.06
2022-10-03T01:39:42.160Z,101436.16
2022-10-03T01:42:18.016Z,101426.31
2022-10-03T01:44:58.091Z,101434.13
2022-10-03T01:47:42.042Z,101445.06
2022-10-03T01:50:20.797Z,101439.69
2022-10-03T01:53:14.380Z,101445.00
2022-10-03T01:56:10.950Z,101447.34
2022-10-03T01:58:40.638Z,101449.38
2022-10-03T02:01:20.554Z,101451.44
2022-10-03T02:04:06.723Z,101449.16
2022-10-03T02:06:43.009Z,101453.78
2022-10-03T02:09:25.002Z,101452.28
2022-10-03T02:11:51.539Z,101456.03
2022-10-03T02:14:22.981Z,101456.72
2022-10-03T02:17:23.420Z,101451.53
2022-10-03T02:20:08.959Z,101455.13
2022-10-03T02:22:51.587Z,101450.03
2022-10-03T02:25:51.539Z,101444.97
2022-10-03T02:28:38.496Z,101449.91
2022-10-03T02:31:20.166Z,101452.22
2022-10-03T02:34:25.305Z,101445.38
2022-10-03T02:36:54.901Z,101448.84
2022-10-03T02:39:21.988Z,101443.16
2022-10-03T02:42:25.876Z,101436.38
2022-10-03T02:45:13.692Z,101439.75
2022-10-03T02:48:30.159Z,101445.91
2022-10-03T02:51:19.851Z,101440.91
2022-10-03T02:54:05.127Z,101444.03
2022-10-03T02:56:47.698Z,101445.19
2022-10-03T02:59:51.872Z,101438.22
2022-10-03T03:02:43.188Z,101447.94
2022-10-03T03:05:31.864Z,101444.44
2022-10-03T03:08:13.291Z,101449.50
2022-10-03T03:10:58.462Z,101455.94
2022-10-03T03:13:49.996Z,101456.53
2022-10-03T03:16:55.035Z,101458.81
2022-10-03T03:19:31.712Z,101466.13
2022-10-03T03:22:05.423Z,101469.03
2022-10-03T03:25:09.750Z,101477.00
2022-10-03T03:27:56.385Z,101480.47
2022-10-03T03:30:29.133Z,101485.91
2022-10-03T03:33:05.463Z,101486.41
2022-10-03T03:35:47.639Z,101482.78
2022-10-03T03:38:56.469Z,101487.34
2022-10-03T03:41:45.332Z,101486.41
2022-10-03T03:44:46.422Z,101479.19
2022-10-03T03:47:36.448Z,101477.28
2022-10-03T03:50:06.595Z,101476.69
2022-10-03T03:52:57.862Z,101481.41
2022-10-03T03:55:40.880Z,101484.53
2022-10-03T03:58:19.779Z,101484.44
2022-10-03T04:01:24.292Z,101487.38
2022-10-03T04:04:08.521Z,101488.31
2022-10-03T04:07:00.138Z,101489.91
2022-10-03T04:09:29.716Z,101495.69
2022-10-03T04:12:15.469Z,101500.16
2022-10-03T04:15:00.412Z,101492.38
2022-10-03T04:18:28.683Z,101504.44
2022-10-03T04:21:09.996Z,101506.53
2022-10-03T04:23:58.135Z,101511.25
2022-10-03T04:26:59.492Z,101507.97
2022-10-03T04:29:48.141Z,101511.56
2022-10-03T04:32:26.765Z,101513.88
2022-10-03T04:35:14.691Z,101517.09
2022-10-03T04:38:12.176Z,101516.63
2022-10-03T04:40:49.855Z,101518.03
2022-10-03T04:43:46.198Z,101511.47
2022-10-03T04:46:18.807Z,101514.00
2022-10-03T04:48:57.309Z,101515.88
2022-10-03T04:52:07.228Z,101511.34
2022-10-03T04:54:49.183Z,101515.16
2022-10-03T04:57:31.617Z,101502.47
2022-10-03T05:00:14.464Z,101509.31
2022-10-03T05:03:22.295Z,101507.75
2022-10-03T05:05:59.584Z,101507.38
2022-10-03T05:08:41.150Z,101513.19
2022-10-03T05:11:24.533Z,101510.16
2022-10-03T05:14:02.183Z,101519.09
2022-10-03T05:16:42.884Z,101526.50
2022-10-03T05:19:37.320Z,101532.09
2022-10-03T05:22:19.340Z,101531.13
2022-10-03T05:25:30.790Z,101534.41
2022-10-03T05:28:16.322Z,101543.47
2022-10-03T05:30:55.802Z,101547.66
2022-10-03T05:33:25.356Z,101536.50
2022-10-03T05:36:27.164Z,101533.84
2022-10-03T05:39:22.950Z,101540.13
2022-10-03T05:42:17.748Z,101542.66
2022-10-03T05:44:46.574Z,101550.50
2022-10-03T05:47:48.915Z,101554.09
2022-10-03T05:50:57.665Z,101551.00
2022-10-03T05:54:00.014Z,101556.75
2022-10-03T05:57:00.275Z,101550.97
2022-10-03T05:59:40.960Z,101564.47
2022-10-03T06:02:38.821Z,101561.34
2022-10-03T06:05:30.683Z,101573.22
2022-10-03T06:08:19.834Z,101576.69
2022-10-03T06:10:57.600Z,101582.28
2022-10-03T06:13:48.691Z,101584.81
2022-10-03T06:16:30.218Z,101587.72
2022-10-03T06:19:07.231Z,101602.66
2022-10-03T06:21:56.421Z,101599.13
2022-10-03T06:24:56.197Z,101609.47
2022-10-03T06:27:58.307Z,101600.34
2022-10-03T06:30:58.527Z,101610.00
2022-10-03T06:34:08.294Z,101618.81
2022-10-03T06:37:16.552Z,101622.69
2022-10-03T06:40:19.831Z,101625.25
2022-10-03T06:43:08.330Z,101621.31
2022-10-03T06:45:56.795Z,101617.03
2022-10-03T06:48:47.500Z,101618.63
2022-10-03T06:51:51.523Z,101602.25
2022-10-03T06:54:55.740Z,101611.66
2022-10-03T06:57:37.680Z,101615.09
2022-10-03T07:00:04.442Z,101616.94
2022-10-03T07:03:01.982Z,101613.22
2022-10-03T07:06:11.573Z,101611.53
2022-10-03T07:09:26.005Z,101619.91
2022-10-03T07:12:31.461Z,101615.19
2022-10-03T07:15:00.974Z,101616.63
2022-10-03T07:18:06.186Z,101613.09
2022-10-03T07:20:54.784Z,101616.34
2022-10-03T07:23:42.715Z,101610.91
2022-10-03T07:26:38.112Z,101613.88
2022-10-03T07:29:15.804Z,101621.44
2022-10-03T07:32:34.279Z,101627.13
2022-10-03T07:35:22.813Z,101628.41
2022-10-03T07:38:26.413Z,101635.66
2022-10-03T07:41:19.693Z,101636.41
2022-10-03T07:44:09.982Z,101642.66
2022-10-03T07:47:28.005Z,101648.19
2022-10-03T07:50:39.746Z,101663.09
2022-10-03T07:53:37.443Z,101662.03
2022-10-03T07:56:18.349Z,101657.16
2022-10-03T07:59:10.005Z,101650.31
2022-10-03T08:02:05.170Z,101654.81
2022-10-03T08:05:05.234Z,101659.41
2022-10-03T08:08:10.245Z,101655.31
2022-10-03T08:11:14.763Z,101653.19
2022-10-03T08:13:50.310Z,101658.84
2022-10-03T08:16:36.087Z,101664.53
2022-10-03T08:19:28.730Z,101658.47
2022-10-03T08:22:17.065Z,101663.75
2022-10-03T08:25:00.606Z,101660.63
2022-10-03T08:27:44.820Z,101664.94
2022-10-03T08:30:23.474Z,101670.25
2022-10-03T08:33:22.947Z,101678.03
2022-10-03T08:36:06.614Z,101667.72
2022-10-03T08:38:42.055Z,101665.91
2022-10-03T08:41:29.748Z,101672.59
2022-10-03T08:44:02.772Z,101669.09
2022-10-03T08:47:12.122Z,101662.13
2022-10-03T08:49:54.846Z,101658.03
2022-10-03T08:53:11.028Z,101668.31
2022-10-03T08:55:42.760Z,101660.88
2022-10-03T08:58:37.461Z,101664.25
2022-10-03T09:01:32.454Z,101658.72
2022-10-03T09:04:17.910Z,101644.38
2022-10-03T09:07:15.949Z,101644.59
2022-10-03T09:10:37.796Z,101652.41
2022-10-03T09:13:27.220Z,101655.41
2022-10-03T09:16:21.557Z,101648.50
2022-10-03T09:19:00.703Z,101647.09
2022-10-03T09:21:48.028Z,101649.38
2022-10-03T09:24:33.435Z,101657.19
2022-10-03T09:27:25.111Z,101654.75
2022-10-03T09:30:15.087Z,101654.94
2022-10-03T09:33:18.373Z,101657.38
2022-10-03T09:35:51.177Z,101655.41
2022-10-03T09:38:36.156Z,101664.44
2022-10-03T09:41:28.743Z,101662.13
2022-10-03T09:44:29.562Z,101658.34
2022-10-03T09:47:37.640Z,101660.25
2022-10-03T09:50:53.952Z,101660.63
2022-10-03T09:53:54.857Z,101655.47
2022-10-03T09:56:52.758Z,101659.72
2022-10-03T09:59:25.315Z,101659.44
2022-10-03T10:01:59.969Z,101658.91
2022-10-03T10:04:55.440Z,101655.28
2022-10-03T10:07:47.849Z,101662.56
2022-10-03T10:10:41.583Z,101660.78
2022-10-03T10:13:08.145Z,101662.50
2022-10-03T10:15:50.163Z,101655.94
2022-10-03T10:18:48.001Z,101660.34
2022-10-03T10:21:20.628Z,101652.81
2022-10-03T10:24:03.576Z,101659.63
2022-10-03T10:27:08.634Z,101652.16
2022-10-03T10:30:06.000Z,101647.63
2022-10-03T10:33:00.493Z,101635.56
2022-10-03T10:35:35.932Z,101640.16
2022-10-03T10:38:15.314Z,101641.72
2022-10-03T10:41:06.747Z,101638.00
2022-10-03T10:43:51.403Z,101641.09
2022-10-03T10:46:36.379Z,101638.72
2022-10-03T10:49:35.763Z,101639.94
2022-10-03T10:52:30.285Z,101638.19
2022-10-03T10:55:31.040Z,101637.13
2022-10-03T10:58:22.532Z,101638.00
2022-10-03T11:01:09.531Z,101643.31
2022-10-03T11:04:04.408Z,101641.66
2022-10-03T11:06:42.355Z,101644.50
2022-10-03T11:09:25.040Z,101645.63
2022-10-03T11:11:54.816Z,101643.63
2022-10-03T11:14:59.580Z,101641.84
2022-10-03T11:17:35.337Z,101637.69
2022-10-03T11:20:38.233Z,101633.84
2022-10-03T11:23:14.017Z,101628.22
2022-10-03T11:25:58.993Z,101628.88
2022-10-03T11:28:37.594Z,101626.72
2022-10-03T11:31:27.987Z,101632.72
2022-10-03T11:34:42.462Z,101619.72
2022-10-03T11:37:32.566Z,101626.38
2022-10-03T11:40:13.879Z,101626.72
2022-10-03T11:43:16.087Z,101628.97
2022-10-03T11:45:42.835Z,101626.84
2022-10-03T11:48:29.969Z,101628.28
2022-10-03T11:51:15.853Z,101614.00
2022-10-03T11:54:29.554Z,101608.19
2022-10-03T11:57:23.073Z,101610.34
2022-10-03T12:00:01.754Z,101616.97
2022-10-03T12:03:13.917Z,101610.72
2022-10-03T12:05:52.873Z,101609.28
2022-10-03T12:08:51.600Z,101605.06
2022-10-03T12:11:58.162Z,101610.69
2022-10-03T12:14:40.356Z,101600.09
2022-10-03T12:17:16.838Z,101594.72
2022-10-03T12:20:15.709Z,101600.16
2022-10-03T12:22:55.467Z,101589.03
2022-10-03T12:25:32.588Z,101593.75
2022-10-03T12:28:21.371Z,101589.44
2022-10-03T12:31:01.158Z,101585.69
2022-10-03T12:33:32.768Z,101588.25
2022-10-03T12:36:46.223Z,101581.25
2022-10-03T12:39:50.012Z,101574.16
2022-10-03T12:42:33.417Z,101578.88
2022-10-03T12:45:11.150Z,101576.44
2022-10-03T12:47:58.295Z,101579.44
2022-10-03T12:51:06.827Z,101579.00
2022-10-03T12:53:48.929Z,101580.06
2022-10-03T12:56:30.117Z,101572.34
2022-10-03T12:59:15.280Z,101566.91
2022-10-03T13:02:04.270Z,101564.13
2022-10-03T13:04:43.697Z,101567.66
2022-10-03T13:07:28.471Z,101567.56
2022-10-03T13:10:41.839Z,101561.63
2022-10-03T13:13:14.381Z,101556.50
2022-10-03T13:16:09.668Z,101550.66
2022-10-03T13:18:46.000Z,101558.94
2022-10-03T13:24:32.193Z,101549.44
2022-10-03T13:27:12.375Z,101551.53
2022-10-03T13:29:46.894Z,101547.41
2022-10-03T13:32:32.441Z,101547.84
2022-10-03T13:35:45.834Z,101549.44
2022-10-03T13:38:31.775Z,101541.09
2022-10-03T13:41:32.222Z,101539.47
2022-10-03T13:44:13.194Z,101544.06
2022-10-03T13:46:54.397Z,101544.47
2022-10-03T13:49:34.352Z,101545.00
2022-10-03T13:52:15.552Z,101540.91
2022-10-03T13:55:07.112Z,101545.28
2022-10-03T13:57:51.630Z,101542.06
2022-10-03T14:00:25.060Z,101533.84
2022-10-03T14:03:04.774Z,101541.91
2022-10-03T14:06:10.691Z,101537.16
2022-10-03T14:08:53.417Z,101538.63
2022-10-03T14:11:22.950Z,101542.94
2022-10-03T14:14:08.368Z,101541.31
2022-10-03T14:16:40.821Z,101536.06
2022-10-03T14:19:20.580Z,101539.13
2022-10-03T14:22:12.583Z,101533.78
2022-10-03T14:25:06.394Z,101532.03
2022-10-03T14:27:47.775Z,101536.13
2022-10-03T14:30:23.603Z,101529.78
2022-10-03T14:33:24.329Z,101530.91
2022-10-03T14:36:22.032Z,101524.63
2022-10-03T14:39:23.998Z,101527.78
2022-10-03T14:42:18.982Z,101533.31
2022-10-03T14:44:53.167Z,101534.19
2022-10-03T14:47:21.776Z,101534.25
2022-10-03T14:49:59.211Z,101535.22
2022-10-03T14:52:29.143Z,101531.44
2022-10-03T14:54:58.247Z,101525.47
2022-10-03T14:57:52.928Z,101526.69
2022-10-03T15:00:36.073Z,101523.72
2022-10-03T15:03:17.846Z,101517.19
2022-10-03T15:05:56.793Z,101516.38
2022-10-03T15:08:29.683Z,101515.81
2022-10-03T15:10:57.117Z,101513.88
2022-10-03T15:13:27.296Z,101509.78
2022-10-03T15:15:56.420Z,101511.25
2022-10-03T15:18:24.652Z,101515.13
2022-10-03T15:20:55.161Z,101524.66
2022-10-03T15:23:33.938Z,101510.34
2022-10-03T15:26:04.079Z,101521.66
2022-10-03T15:28:38.573Z,101516.38
2022-10-03T15:31:15.377Z,101516.25
2022-10-03T15:33:44.478Z,101515.16
2022-10-03T15:36:21.506Z,101511.91
2022-10-03T15:39:00.371Z,101508.38
2022-10-03T15:42:06.133Z,101504.41
2022-10-03T15:44:39.501Z,101507.75
2022-10-03T15:47:12.751Z,101504.22
2022-10-03T15:49:53.811Z,101505.91
2022-10-03T15:52:31.175Z,101502.22
2022-10-03T15:55:11.507Z,101498.41
2022-10-03T15:57:47.116Z,101498.44
2022-10-03T16:00:36.095Z,101503.50
2022-10-03T16:03:13.736Z,101494.25
2022-10-03T16:06:02.704Z,101499.06
2022-10-03T16:08:33.668Z,101500.44
2022-10-03T16:11:12.465Z,101506.72
2022-10-03T16:13:44.389Z,101504.94
2022-10-03T16:16:47.847Z,101503.00
2022-10-03T16:19:47.620Z,101500.72
2022-10-03T16:22:36.293Z,101493.84
2022-10-03T16:25:16.215Z,101486.22
2022-10-03T16:27:53.183Z,101480.81
2022-10-03T16:30:26.434Z,101481.53
2022-10-03T16:33:19.417Z,101476.88
2022-10-03T16:36:02.358Z,101483.72
2022-10-03T16:38:43.418Z,101486.25
2022-10-03T16:41:10.134Z,101478.38
2022-10-03T16:43:37.468Z,101480.94
2022-10-03T16:46:14.908Z,101477.50
2022-10-03T16:49:02.957Z,101479.41
2022-10-03T16:51:54.479Z,101492.66
2022-10-03T16:54:22.853Z,101501.25
2022-10-03T16:56:59.352Z,101501.38
2022-10-03T16:59:29.470Z,101499.63
2022-10-03T17:02:03.598Z,101492.25
2022-10-03T17:04:35.930Z,101497.66
2022-10-03T17:07:23.912Z,101489.13
2022-10-03T17:09:53.425Z,101492.91
2022-10-03T17:12:37.211Z,101494.88
2022-10-03T17:15:07.758Z,101490.78
2022-10-03T17:17:44.927Z,101471.22
2022-10-03T17:20:26.478Z,101477.13
2022-10-03T17:23:03.743Z,101474.38
2022-10-03T17:25:55.656Z,101474.38
2022-10-03T17:28:39.730Z,101469.44
2022-10-03T17:31:21.158Z,101465.41
2022-10-03T17:33:53.535Z,101467.88
2022-10-03T17:36:50.628Z,101467.13
2022-10-03T17:39:26.116Z,101462.84
2022-10-03T17:42:00.061Z,101463.97
2022-10-03T17:44:47.484Z,101462.19
2022-10-03T17:47:49.543Z,101458.88
2022-10-03T17:50:25.002Z,101460.09
2022-10-03T17:52:54.108Z,101466.09
2022-10-03T17:55:34.506Z,101462.47
2022-10-03T17:58:12.175Z,101459.81
2022-10-03T18:00:45.107Z,101461.59
2022-10-03T18:03:41.240Z,101463.72
2022-10-03T18:06:31.620Z,101468.56
2022-10-03T18:09:06.828Z,101457.50
2022-10-03T18:11:35.815Z,101461.19
2022-10-03T18:14:17.574Z,101462.81
2022-10-03T18:17:03.853Z,101450.47
2022-10-03T18:20:08.050Z,101459.06
2022-10-03T18:22:41.143Z,101462.72
2022-10-03T18:26:08.095Z,101461.41
2022-10-03T18:28:36.486Z,101455.91
2022-10-03T18:31:11.807Z,101455.78
2022-10-03T18:33:51.089Z,101452.63
2022-10-03T18:36:35.490Z,101454.13
2022-10-03T18:39:15.325Z,101450.16
2022-10-03T18:41:48.590Z,101449.66
2022-10-03T18:44:19.574Z,101455.91
2022-10-03T18:46:50.835Z,101456.13
2022-10-03T18:49:39.653Z,101457.56
2022-10-03T18:52:24.343Z,101459.22
2022-10-03T18:54:50.925Z,101454.75
2022-10-03T18:57:25.433Z,101461.78
2022-10-03T19:00:18.274Z,101458.59
2022-10-03T19:02:53.834Z,101452.16
2022-10-03T19:05:21.704Z,101453.56
2022-10-03T19:08:02.006Z,101455.56
2022-10-03T19:10:50.065Z,101449.47
2022-10-03T19:13:45.574Z,101446.53
2022-10-03T19:16:20.523Z,101448.19
2022-10-03T19:19:02.865Z,101448.78
2022-10-03T19:21:35.555Z,101446.31
2022-10-03T19:24:17.511Z,101446.47
2022-10-03T19:26:55.977Z,101447.38
2022-10-03T19:29:33.011Z,101444.44
2022-10-03T19:32:08.336Z,101447.38
2022-10-03T19:34:38.801Z,101449.66
2022-10-03T19:37:14.014Z,101443.53
2022-10-03T19:39:40.724Z,101445.44
2022-10-03T19:42:41.824Z,101453.88
2022-10-03T19:45:13.351Z,101453.66
2022-10-03T19:47:50.997Z,101450.00
2022-10-03T19:50:25.307Z,101452.56
2022-10-03T19:52:52.369Z,101450.91
2022-10-03T19:55:34.126Z,101447.72
2022-10-03T19:58:24.278Z,101446.25
2022-10-03T20:00:54.709Z,101446.25
2022-10-03T20:03:44.168Z,101436.41
2022-10-03T20:06:36.215Z,101434.75
2022-10-03T20:09:18.181Z,101422.56
2022-10-03T20:11:48.583Z,101427.47
2022-10-03T20:14:27.081Z,101434.53
2022-10-03T20:17:10.166Z,101428.31
2022-10-03T20:19:46.946Z,101432.41
2022-10-03T20:22:14.882Z,101426.78
2022-10-03T20:24:45.235Z,101426.66
2022-10-03T20:27:28.430Z,101436.75
2022-10-03T20:30:06.304Z,101432.88
2022-10-03T20:32:37.479Z,101438.75
2022-10-03T20:35:04.924Z,101435.56
2022-10-03T20:37:52.531Z,101427.03
2022-10-03T20:40:31.088Z,101428.06
2022-10-03T20:43:10.381Z,101425.66
2022-10-03T20:45:38.305Z,101407.06
2022-10-03T20:48:20.098Z,101418.22
2022-10-03T20:50:48.095Z,101419.84
2022-10-03T20:53:24.908Z,101421.03
2022-10-03T20:56:03.094Z,101421.44
2022-10-03T20:58:34.862Z,101410.97
2022-10-03T21:01:08.151Z,101404.19
2022-10-03T21:03:38.095Z,101398.41
2022-10-03T21:06:19.628Z,101413.22
2022-10-03T21:08:47.947Z,101411.59
2022-10-03T21:11:27.860Z,101411.44
2022-10-03T21:14:26.613Z,101412.13
2022-10-03T21:16:55.218Z,101423.72
2022-10-03T21:19:32.067Z,101412.78
2022-10-03T21:22:03.100Z,101413.84
2022-10-03T21:24:42.537Z,101407.34
2022-10-03T21:27:17.988Z,101411.69
2022-10-03T21:30:01.720Z,101406.88
2022-10-03T21:32:42.788Z,101405.78
2022-10-03T21:35:27.397Z,101410.09
2022-10-03T21:38:10.731Z,101405.44
2022-10-03T21:41:03.582Z,101401.22
2022-10-03T21:43:44.005Z,101410.25
2022-10-03T21:46:36.763Z,101404.69
2022-10-03T21:49:12.480Z,101399.75
2022-10-03T21:51:48.554Z,101389.63
2022-10-03T21:54:43.011Z,101384.25
2022-10-03T21:57:47.037Z,101377.94
2022-10-03T22:00:15.201Z,101380.50
2022-10-03T22:02:55.373Z,101375.41
2022-10-03T22:05:42.392Z,101382.88
2022-10-03T22:08:23.328Z,101387.81
2022-10-03T22:10:57.182Z,101382.88
2022-10-03T22:13:28.746Z,101396.84
2022-10-03T22:16:09.147Z,101389.00
2022-10-03T22:19:07.714Z,101373.88
2022-10-03T22:21:48.057Z,101370.69
2022-10-03T22:24:42.077Z,101379.34
2022-10-03T22:27:25.296Z,101377.25
2022-10-03T22:30:07.045Z,101370.00
2022-10-03T22:32:51.755Z,101361.59
2022-10-03T22:35:43.546Z,101358.00
2022-10-03T22:38:10.625Z,101352.69
2022-10-03T22:40:38.073Z,101354.88
2022-10-03T22:43:06.200Z,101345.25
2022-10-03T22:45:37.696Z,101339.03
2022-10-03T22:48:11.259Z,101340.13
2022-10-03T22:50:41.683Z,101343.13
2022-10-03T22:53:15.516Z,101347.25
2022-10-03T22:55:46.700Z,101341.78
2022-10-03T22:58:13.998Z,101342.28
2022-10-03T23:00:42.088Z,101338.38
2022-10-03T23:03:26.660Z,101338.34
2022-10-03T23:06:23.057Z,101334.69
2022-10-03T23:09:02.602Z,101334.53
2022-10-03T23:11:32.005Z,101332.19
2022-10-03T23:14:25.950Z,101331.19
2022-10-03T23:17:02.307Z,101319.47
2022-10-03T23:19:47.884Z,101319.94
2022-10-03T23:22:18.342Z,101326.88
2022-10-03T23:24:53.687Z,101322.09
2022-10-03T23:27:38.536Z,101317.94
2022-10-03T23:30:11.244Z,101306.66
2022-10-03T23:32:46.915Z,101315.09
2022-10-03T23:35:43.204Z,101312.16
2022-10-03T23:38:49.050Z,101308.59
2022-10-03T23:41:29.962Z,101300.75
2022-10-03T23:43:58.083Z,101306.78
2022-10-03T23:46:28.477Z,101302.31
2022-10-03T23:48:58.766Z,101299.81
2022-10-03T23:51:32.814Z,101305.97
2022-10-03T23:54:03.898Z,101303.13
2022-10-03T23:56:36.993Z,101305.97
2022-10-03T23:59:03.880Z,101308.94
